Time;durP1;ratioP1;P1;durP2;ratioP2;P2;SDS_P1;SDS_P2;PMS_P1;PMS_P2;Temp;Humidity;BMP_temperature;BMP_pressure;BME280_temperature;BME280_humidity;BME280_pressure;Samples;Min_cycle;Max_cycle;Signal;HPM_P1;HPM_P2
2021/07/22 00:01:44;;;;;;;10.70;8.67;;;;;;;15.57;79.43;102281.97;5016229;28;20193;-76
2021/07/22 00:04:09;;;;;;;9.50;8.60;;;;;;;16.49;77.69;102335.84;5023036;28;20185;-77
2021/07/22 00:06:35;;;;;;;8.37;7.57;;;;;;;16.54;78.17;102365.00;5014757;28;20576;-77
2021/07/22 00:09:00;;;;;;;10.10;9.20;;;;;;;16.94;77.25;102405.88;5011292;28;20220;-77
2021/07/22 00:11:25;;;;;;;9.03;8.10;;;;;;;16.32;76.49;102315.56;5015303;28;20267;-76
2021/07/22 00:13:51;;;;;;;9.30;8.37;;;;;;;16.18;77.01;102294.88;5017381;28;20649;-76
2021/07/22 00:16:17;;;;;;;9.37;8.47;;;;;;;16.03;75.50;102281.47;5017842;28;20227;-78
2021/07/22 00:18:43;;;;;;;8.77;7.87;;;;;;;15.87;75.29;102220.38;5022741;28;20177;-78
2021/07/22 00:21:09;;;;;;;8.80;7.90;;;;;;;16.09;76.22;102285.25;5019131;28;20450;-78
2021/07/22 00:23:34;;;;;;;10.50;8.97;;;;;;;16.33;75.68;102311.81;5019182;28;20227;-78
2021/07/22 00:26:05;;;;;;;9.90;8.93;;;;;;;16.45;78.25;102396.84;5020709;28;20516;-77
2021/07/22 00:28:31;;;;;;;8.80;7.90;;;;;;;16.07;78.34;102344.16;5022643;28;20224;-77
2021/07/22 00:30:57;;;;;;;9.97;7.80;;;;;;;16.18;77.99;102346.31;5024463;28;20468;-78
2021/07/22 00:33:22;;;;;;;7.97;7.10;;;;;;;16.44;77.27;102349.16;5025571;28;20181;-78
2021/07/22 00:35:48;;;;;;;8.87;8.07;;;;;;;16.44;78.09;102356.44;5021066;28;20542;-78
2021/07/22 00:38:13;;;;;;;8.73;7.83;;;;;;;16.26;77.42;102300.13;5018955;28;20213;-78
2021/07/22 00:40:48;;;;;;;8.60;7.00;;;;;;;16.65;76.86;102347.34;5015951;28;20195;-78
2021/07/22 00:43:13;;;;;;;8.83;7.93;;;;;;;16.77;77.44;102366.59;5018342;28;20242;-78
2021/07/22 00:45:39;;;;;;;8.70;7.90;;;;;;;16.93;76.30;102355.41;5022834;28;20460;-78
2021/07/22 00:48:05;;;;;;;9.40;8.50;;;;;;;16.98;77.21;102387.31;5018724;28;20920;-77
2021/07/22 00:50:31;;;;;;;7.87;7.07;;;;;;;17.03;76.92;102382.94;5018538;28;20231;-78
2021/07/22 00:52:58;;;;;;;9.20;8.40;;;;;;;16.59;75.85;102296.72;5026350;28;20192;-77
2021/07/22 00:55:27;;;;;;;9.13;8.20;;;;;;;16.78;76.01;102323.06;5024380;28;20462;-78
2021/07/22 00:57:53;;;;;;;8.70;7.90;;;;;;;16.90;75.56;102348.53;5022977;28;20475;-78
2021/07/22 01:00:19;;;;;;;9.27;8.27;;;;;;;15.91;75.53;102169.41;5020792;28;20518;-78
2021/07/22 01:02:44;;;;;;;9.80;8.80;;;;;;;15.98;76.96;102255.00;5037041;28;20185;-78
2021/07/22 01:05:10;;;;;;;9.10;8.17;;;;;;;16.19;77.41;102261.34;5022217;28;20437;-77
2021/07/22 01:07:37;;;;;;;9.47;8.40;;;;;;;16.79;76.86;102321.19;5020054;28;20184;-78
2021/07/22 01:10:03;;;;;;;8.97;8.07;;;;;;;16.99;76.64;102338.34;5023890;28;20679;-78
2021/07/22 01:12:29;;;;;;;8.40;7.60;;;;;;;17.11;77.59;102373.81;5018928;28;20530;-78
2021/07/22 01:14:54;;;;;;;9.70;8.30;;;;;;;15.89;76.93;102190.44;5019357;28;20555;-77
2021/07/22 01:17:24;;;;;;;10.47;7.90;;;;;;;17.03;76.20;102333.31;5017376;28;20266;-78
2021/07/22 01:19:49;;;;;;;10.57;8.03;;;;;;;17.25;76.32;102383.63;5032428;28;20180;-78
2021/07/22 01:22:15;;;;;;;9.77;8.87;;;;;;;16.90;75.97;102321.41;5024913;28;20442;-78
2021/07/22 01:24:40;;;;;;;8.93;7.90;;;;;;;16.81;76.81;102313.69;5019668;28;20667;-78
2021/07/22 01:27:06;;;;;;;9.00;8.20;;;;;;;17.33;75.07;102355.50;5017869;28;20247;-78
2021/07/22 01:29:31;;;;;;;11.50;8.00;;;;;;;17.02;76.37;102375.88;5022926;28;20176;-78
2021/07/22 01:32:03;;;;;;;8.37;7.57;;;;;;;17.16;76.87;102380.28;5019934;28;20188;-78
2021/07/22 01:34:28;;;;;;;8.40;7.60;;;;;;;17.04;77.24;102379.22;5018785;28;20204;-78
2021/07/22 01:36:53;;;;;;;9.70;8.17;;;;;;;16.60;77.29;102285.66;5015276;28;20463;-78
2021/07/22 01:39:19;;;;;;;9.30;8.10;;;;;;;16.15;77.11;102220.31;5019590;28;20177;-78
2021/07/22 01:41:44;;;;;;;8.77;7.77;;;;;;;17.16;76.37;102360.47;5033591;28;20189;-78
2021/07/22 01:44:09;;;;;;;10.40;7.67;;;;;;;17.13;76.77;102344.63;5021995;28;20246;-78
2021/07/22 01:46:35;;;;;;;9.40;7.90;;;;;;;16.36;76.61;102243.69;5019317;28;20548;-78
2021/07/22 01:49:00;;;;;;;8.47;6.77;;;;;;;16.15;75.93;102211.34;5021974;28;20184;-77
2021/07/22 01:51:25;;;;;;;7.97;7.27;;;;;;;16.62;75.83;102289.00;5019535;28;20243;-77
2021/07/22 01:53:51;;;;;;;8.50;7.60;;;;;;;16.52;74.91;102263.31;5022843;28;20185;-78
2021/07/22 01:56:16;;;;;;;8.10;7.10;;;;;;;17.01;74.86;102319.13;5020886;28;20276;-77
2021/07/22 01:58:41;;;;;;;8.60;7.70;;;;;;;16.43;74.54;102236.47;5022396;28;20657;-78
2021/07/22 02:01:07;;;;;;;8.73;7.93;;;;;;;16.96;75.90;102311.63;5021445;28;20223;-77
2021/07/22 02:03:32;;;;;;;8.03;7.33;;;;;;;16.98;76.28;102328.53;5037975;28;20193;-78
2021/07/22 02:05:57;;;;;;;9.20;8.30;;;;;;;16.66;76.33;102274.03;5027916;28;20220;-77
2021/07/22 02:08:23;;;;;;;7.80;7.00;;;;;;;16.89;76.30;102280.97;5022858;28;20203;-78
2021/07/22 02:10:48;;;;;;;7.80;7.00;;;;;;;17.12;76.59;102327.50;5020954;28;20238;-77
2021/07/22 02:13:14;;;;;;;9.10;8.20;;;;;;;16.65;75.61;102250.66;5024928;28;20193;-78
2021/07/22 02:15:39;;;;;;;8.23;7.50;;;;;;;17.21;76.29;102346.28;5022692;28;20601;-78
2021/07/22 02:18:04;;;;;;;9.27;7.33;;;;;;;17.11;75.67;102306.03;5022514;28;20234;-77
2021/07/22 02:20:30;;;;;;;8.90;8.00;;;;;;;16.32;73.82;102174.75;5020896;28;20196;-78
2021/07/22 02:22:55;;;;;;;9.07;7.93;;;;;;;17.49;74.76;102371.34;5026114;28;20227;-78
2021/07/22 02:25:20;;;;;;;7.80;7.03;;;;;;;16.60;75.19;102245.03;5021894;28;20553;-78
2021/07/22 02:27:46;;;;;;;9.00;8.10;;;;;;;17.10;75.27;102329.59;5022292;28;20569;-78
2021/07/22 02:30:12;;;;;;;8.40;7.57;;;;;;;16.73;74.46;102282.16;5021716;28;20193;-78
2021/07/22 02:32:37;;;;;;;8.77;7.97;;;;;;;16.60;73.79;102255.03;5034523;28;20192;-78
2021/07/22 02:35:03;;;;;;;9.53;7.90;;;;;;;16.77;74.18;102274.47;5022185;28;20217;-78
2021/07/22 02:37:28;;;;;;;8.80;8.00;;;;;;;16.98;74.68;102315.00;5021785;28;20341;-77
2021/07/22 02:39:54;;;;;;;8.27;7.40;;;;;;;17.24;74.25;102346.72;5022890;28;20531;-78
2021/07/22 02:42:19;;;;;;;9.33;8.47;;;;;;;16.83;74.98;102290.75;5022106;28;20195;-78
2021/07/22 02:44:44;;;;;;;8.63;7.73;;;;;;;17.03;74.71;102315.19;5023173;28;20205;-78
2021/07/22 02:47:11;;;;;;;7.73;6.90;;;;;;;17.32;74.82;102370.91;5021592;28;20212;-78
2021/07/22 02:49:36;;;;;;;9.17;7.67;;;;;;;16.76;74.51;102305.31;5021470;28;20192;-78
2021/07/22 02:52:03;;;;;;;8.77;7.90;;;;;;;17.47;73.54;102391.59;5021856;28;20461;-78
2021/07/22 02:54:28;;;;;;;12.40;8.70;;;;;;;16.91;74.23;102330.38;5021779;28;20209;-78
2021/07/22 02:56:53;;;;;;;8.53;7.67;;;;;;;17.16;72.73;102341.50;5037228;28;20473;-77
2021/07/22 02:59:21;;;;;;;8.20;7.30;;;;;;;17.16;71.67;102328.78;5019439;28;20185;-78
2021/07/22 03:01:46;;;;;;;8.60;7.10;;;;;;;16.70;73.33;102271.72;5020635;28;20197;-78
2021/07/22 03:04:12;;;;;;;9.00;7.13;;;;;;;16.81;73.05;102303.69;5020241;28;20443;-78
2021/07/22 03:06:39;;;;;;;9.17;7.17;;;;;;;16.92;71.81;102324.78;5018987;28;20251;-78
2021/07/22 03:09:05;;;;;;;8.33;6.77;;;;;;;16.96;72.72;102329.78;5022027;28;20567;-78
2021/07/22 03:11:30;;;;;;;7.77;6.90;;;;;;;17.20;71.05;102350.03;5020425;28;20969;-78
2021/07/22 03:13:56;;;;;;;7.00;6.30;;;;;;;17.22;71.28;102351.50;5026219;28;20188;-77
2021/07/22 03:16:22;;;;;;;6.43;5.83;;;;;;;16.78;70.99;102295.09;5022915;28;20227;-78
2021/07/22 03:18:47;;;;;;;7.20;5.50;;;;;;;17.25;72.50;102380.09;5027715;28;20443;-78
2021/07/22 03:21:12;;;;;;;6.40;5.60;;;;;;;17.01;71.72;102365.22;5022902;28;20184;-78
2021/07/22 03:23:38;;;;;;;6.97;5.60;;;;;;;16.82;72.19;102339.75;5016553;28;20268;-78
2021/07/22 03:26:03;;;;;;;6.80;5.50;;;;;;;16.46;71.71;102256.84;5021451;28;20201;-78
2021/07/22 03:28:28;;;;;;;6.17;5.60;;;;;;;16.55;72.73;102271.91;5025272;28;20204;-77
2021/07/22 03:30:54;;;;;;;7.07;5.77;;;;;;;16.61;73.05;102298.19;5015545;28;20193;-77
2021/07/22 03:33:19;;;;;;;6.00;5.10;;;;;;;17.19;72.76;102361.94;5022399;28;20199;-78
2021/07/22 03:35:44;;;;;;;6.23;5.67;;;;;;;17.01;72.33;102341.69;5017955;28;20231;-78
2021/07/22 03:38:10;;;;;;;6.77;5.40;;;;;;;17.02;71.23;102350.66;5025290;28;20641;-77
2021/07/22 03:40:35;;;;;;;6.20;4.90;;;;;;;16.78;71.49;102314.06;5020893;28;20263;-77
2021/07/22 03:43:01;;;;;;;6.63;4.33;;;;;;;16.46;70.80;102248.72;5026464;28;20280;-77
2021/07/22 03:45:26;;;;;;;5.60;4.30;;;;;;;17.07;71.58;102372.56;5025896;28;20180;-77
2021/07/22 03:47:51;;;;;;;5.20;4.60;;;;;;;16.34;70.89;102228.69;5017417;28;20194;-77
2021/07/22 03:50:17;;;;;;;6.23;4.70;;;;;;;16.54;70.75;102275.63;5018052;28;20203;-77
2021/07/22 03:52:42;;;;;;;5.20;4.27;;;;;;;16.64;71.15;102288.81;5033925;28;20195;-78
2021/07/22 03:55:08;;;;;;;4.43;4.13;;;;;;;16.44;71.38;102259.78;5034508;28;20540;-79
2021/07/22 03:57:34;;;;;;;4.10;3.80;;;;;;;16.73;71.39;102296.53;5033571;28;20196;-77
2021/07/22 03:59:59;;;;;;;4.80;4.40;;;;;;;17.15;71.47;102372.34;5019057;28;20515;-77
2021/07/22 04:02:24;;;;;;;4.97;4.47;;;;;;;16.72;70.86;102294.00;5022810;28;20185;-78
2021/07/22 04:04:50;;;;;;;4.90;4.50;;;;;;;17.10;71.20;102362.13;5019175;28;20181;-78
2021/07/22 04:07:15;;;;;;;5.33;3.93;;;;;;;16.86;70.42;102316.59;5019350;28;20704;-78
2021/07/22 04:09:45;;;;;;;3.87;3.57;;;;;;;17.12;70.83;102383.59;5016054;28;20196;-78
2021/07/22 04:12:10;;;;;;;3.77;3.47;;;;;;;16.67;70.59;102280.28;5015786;28;20286;-78
2021/07/22 04:14:35;;;;;;;4.53;4.10;;;;;;;16.75;70.33;102298.19;5018988;28;20991;-77
2021/07/22 04:17:01;;;;;;;4.23;3.83;;;;;;;16.49;70.00;102246.47;5017567;28;20217;-77
2021/07/22 04:19:28;;;;;;;4.83;3.57;;;;;;;17.16;70.51;102349.63;5016188;28;20185;-78
2021/07/22 04:21:54;;;;;;;4.33;3.50;;;;;;;16.62;69.86;102282.75;5021658;28;20192;-78
2021/07/22 04:24:19;;;;;;;5.00;3.23;;;;;;;16.81;70.28;102309.09;5033378;28;20439;-75
2021/07/22 04:26:44;;;;;;;3.93;3.20;;;;;;;17.01;69.78;102325.41;5017609;28;20212;-76
2021/07/22 04:29:10;;;;;;;4.07;3.40;;;;;;;17.23;69.61;102371.31;5019020;28;20195;-76
2021/07/22 04:31:35;;;;;;;4.00;3.60;;;;;;;16.73;69.71;102298.41;5017866;28;20704;-76
2021/07/22 04:34:01;;;;;;;4.00;3.43;;;;;;;16.83;68.90;102309.72;5019001;28;20192;-76
2021/07/22 04:36:26;;;;;;;4.30;3.90;;;;;;;17.19;69.12;102364.66;5019531;28;20224;-75
2021/07/22 04:38:51;;;;;;;3.67;3.23;;;;;;;17.22;69.20;102369.66;5023959;28;20227;-76
2021/07/22 04:41:17;;;;;;;3.90;3.20;;;;;;;16.45;69.42;102256.03;5024400;28;20176;-76
2021/07/22 04:43:43;;;;;;;3.60;3.30;;;;;;;17.22;69.27;102375.91;5033911;28;20195;-75
2021/07/22 04:46:08;;;;;;;3.57;3.27;;;;;;;16.79;69.50;102316.59;5015791;28;20669;-76
2021/07/22 04:48:33;;;;;;;3.23;2.93;;;;;;;16.68;69.60;102296.31;5019762;28;20223;-74
2021/07/22 04:51:05;;;;;;;3.17;2.90;;;;;;;16.94;69.47;102324.56;5017534;28;20231;-76
2021/07/22 04:53:33;;;;;;;3.10;2.80;;;;;;;17.33;69.09;102377.19;5017422;28;20184;-75
2021/07/22 04:55:59;;;;;;;3.03;2.70;;;;;;;16.73;69.06;102295.72;5017255;28;20471;-76
2021/07/22 04:58:25;;;;;;;4.20;3.80;;;;;;;17.01;68.39;102335.41;5026864;28;20442;-76
2021/07/22 05:00:51;;;;;;;5.17;2.37;;;;;;;17.23;69.16;102377.56;5023985;28;20185;-75
2021/07/22 05:03:16;;;;;;;3.23;3.03;;;;;;;17.17;69.15;102362.13;5017668;28;20538;-76
2021/07/22 05:05:42;;;;;;;3.03;2.73;;;;;;;16.81;69.33;102297.44;5016272;28;20211;-76
2021/07/22 05:08:07;;;;;;;2.80;2.60;;;;;;;17.09;69.83;102367.75;5023094;28;20184;-76
2021/07/22 05:10:32;;;;;;;3.30;2.90;;;;;;;16.69;69.41;102306.13;5012257;28;20222;-76
2021/07/22 05:12:59;;;;;;;3.33;2.67;;;;;;;17.24;69.33;102381.97;5022191;28;20451;-76
2021/07/22 05:15:25;;;;;;;3.30;3.00;;;;;;;16.83;68.78;102325.97;5016998;28;20212;-75
2021/07/22 05:17:50;;;;;;;3.00;2.67;;;;;;;17.30;68.44;102383.00;5021354;28;20430;-75
2021/07/22 05:20:15;;;;;;;2.87;2.10;;;;;;;16.87;68.28;102332.69;5022828;28;20189;-76
2021/07/22 05:22:41;;;;;;;2.87;2.40;;;;;;;17.11;68.38;102336.69;5026612;28;20525;-75
2021/07/22 05:25:07;;;;;;;3.60;2.90;;;;;;;17.38;68.49;102389.06;5016133;28;20188;-76
2021/07/22 05:27:33;;;;;;;4.80;2.57;;;;;;;17.11;68.74;102336.69;5018637;28;20274;-76
2021/07/22 05:29:58;;;;;;;3.47;2.90;;;;;;;17.24;67.75;102359.44;5015318;28;20805;-75
2021/07/22 05:32:23;;;;;;;3.40;3.13;;;;;;;17.05;68.28;102304.97;5023276;28;20185;-75
2021/07/22 05:34:49;;;;;;;2.87;2.33;;;;;;;16.87;68.66;102283.06;5021335;28;20213;-76
2021/07/22 05:37:14;;;;;;;2.80;2.60;;;;;;;16.96;68.95;102299.97;5016926;28;20222;-76
2021/07/22 05:39:39;;;;;;;3.13;2.67;;;;;;;16.96;67.98;102299.97;5024113;28;20261;-76
2021/07/22 05:42:05;;;;;;;4.17;2.43;;;;;;;16.96;67.36;102297.25;5023300;28;20190;-76
2021/07/22 05:44:30;;;;;;;3.27;2.97;;;;;;;16.67;68.81;102274.84;5024930;28;20172;-76
2021/07/22 05:46:56;;;;;;;2.90;2.70;;;;;;;16.79;68.23;102285.97;5033186;28;20197;-76
2021/07/22 05:49:22;;;;;;;3.60;3.00;;;;;;;16.96;66.35;102281.81;5015638;28;20180;-76
2021/07/22 05:51:47;;;;;;;2.80;2.60;;;;;;;17.21;67.79;102322.72;5020113;28;20275;-76
2021/07/22 05:54:13;;;;;;;2.80;2.53;;;;;;;17.00;67.25;102287.66;5025057;28;21379;-76
2021/07/22 05:56:38;;;;;;;2.50;2.30;;;;;;;17.46;68.06;102330.25;5034725;28;20212;-76
2021/07/22 05:59:04;;;;;;;3.10;2.80;;;;;;;16.78;67.57;102235.50;5020938;28;20292;-76
2021/07/22 06:01:30;;;;;;;3.00;2.70;;;;;;;16.87;68.31;102272.22;5015884;28;20191;-76
2021/07/22 06:03:55;;;;;;;3.90;2.90;;;;;;;17.27;66.21;102315.63;5025382;28;20271;-76
2021/07/22 06:06:20;;;;;;;2.57;2.30;;;;;;;17.32;66.39;102313.13;5023122;28;20205;-75
2021/07/22 06:08:46;;;;;;;2.20;2.00;;;;;;;17.06;67.48;102278.69;5021953;28;20220;-75
2021/07/22 06:11:14;;;;;;;3.17;2.67;;;;;;;17.56;66.93;102382.19;5021286;28;20278;-75
2021/07/22 06:13:40;;;;;;;2.47;2.27;;;;;;;17.01;66.85;102294.75;5025367;28;20196;-75
2021/07/22 06:16:11;;;;;;;2.80;2.37;;;;;;;17.67;66.78;102387.00;5019705;28;20999;-76
2021/07/22 06:18:37;;;;;;;4.27;2.97;;;;;;;17.00;66.58;102271.41;5019945;28;20556;-76
2021/07/22 06:21:02;;;;;;;3.27;2.63;;;;;;;17.04;66.96;102265.38;5019167;28;20427;-75
2021/07/22 06:23:28;;;;;;;2.47;2.27;;;;;;;17.07;66.01;102280.38;5018119;28;20943;-75
2021/07/22 06:26:00;;;;;;;2.67;2.33;;;;;;;17.27;66.03;102296.66;5019082;28;20211;-76
2021/07/22 06:28:26;;;;;;;2.90;2.60;;;;;;;17.53;67.24;102339.22;5020901;28;20271;-76
2021/07/22 06:30:52;;;;;;;4.27;2.70;;;;;;;17.57;66.05;102371.16;5017679;28;20443;-75
2021/07/22 06:33:18;;;;;;;3.10;2.50;;;;;;;17.55;67.15;102375.94;5037492;28;20436;-75
2021/07/22 06:35:43;;;;;;;2.77;2.57;;;;;;;17.67;65.89;102387.00;5021802;28;20478;-76
2021/07/22 06:38:09;;;;;;;2.73;2.10;;;;;;;17.42;65.74;102353.44;5029220;28;20561;-76
2021/07/22 06:40:35;;;;;;;2.50;2.10;;;;;;;17.88;65.37;102387.88;5021490;28;20189;-76
2021/07/22 06:43:01;;;;;;;2.97;2.37;;;;;;;17.61;65.26;102358.84;5020063;28;20186;-75
2021/07/22 06:45:26;;;;;;;2.80;2.60;;;;;;;17.62;66.11;102349.66;5019188;28;20435;-76
2021/07/22 06:47:51;;;;;;;2.30;2.10;;;;;;;17.69;63.78;102336.09;5013569;28;20193;-76
2021/07/22 06:50:17;;;;;;;2.30;2.10;;;;;;;17.78;63.89;102355.75;5029712;28;20204;-75
2021/07/22 06:52:42;;;;;;;3.30;2.40;;;;;;;17.36;63.64;102273.72;5023372;28;20260;-75
2021/07/22 06:55:08;;;;;;;2.37;2.17;;;;;;;17.91;63.31;102376.63;5027732;28;20232;-78
2021/07/22 06:57:36;;;;;;;2.57;2.37;;;;;;;17.86;63.41;102368.28;5021586;28;20677;-75
2021/07/22 07:00:06;;;;;;;3.83;2.30;;;;;;;18.09;61.67;102376.78;5027399;28;20184;-76
2021/07/22 07:02:31;;;;;;;2.77;2.57;;;;;;;17.80;61.66;102349.06;5019188;28;20443;-75
2021/07/22 07:04:57;;;;;;;1.97;1.87;;;;;;;18.08;60.81;102383.28;5026662;28;20434;-76
2021/07/22 07:07:22;;;;;;;2.73;2.30;;;;;;;17.81;62.11;102342.56;5025984;28;20208;-76
2021/07/22 07:09:47;;;;;;;3.33;2.40;;;;;;;18.06;61.35;102374.50;5018394;28;20204;-76
2021/07/22 07:12:13;;;;;;;2.93;2.23;;;;;;;18.06;60.83;102397.06;5024175;28;20221;-75
2021/07/22 07:14:38;;;;;;;3.23;2.13;;;;;;;17.79;60.38;102295.84;5029405;28;20303;-75
2021/07/22 07:17:04;;;;;;;2.83;2.13;;;;;;;18.25;59.67;102383.66;5020056;28;20708;-76
2021/07/22 07:19:29;;;;;;;2.07;1.83;;;;;;;17.70;60.80;102288.06;5017271;28;20257;-75
2021/07/22 07:21:55;;;;;;;3.73;2.57;;;;;;;18.28;61.38;102384.09;5022475;28;20203;-75
2021/07/22 07:24:20;;;;;;;1.77;1.67;;;;;;;18.27;60.36;102392.44;5021145;28;20189;-76
2021/07/22 07:26:45;;;;;;;1.97;1.87;;;;;;;17.98;59.76;102359.25;5030305;28;20681;-75
2021/07/22 07:29:11;;;;;;;1.70;1.60;;;;;;;17.67;61.17;102327.31;5026952;28;20212;-75
2021/07/22 07:31:38;;;;;;;3.93;2.13;;;;;;;17.72;61.67;102360.09;5028399;28;20268;-76
2021/07/22 07:34:03;;;;;;;3.30;2.00;;;;;;;17.31;61.58;102298.75;5027668;28;20189;-76
2021/07/22 07:36:29;;;;;;;3.20;2.20;;;;;;;17.88;60.93;102374.31;5027801;28;20484;-75
2021/07/22 07:38:54;;;;;;;2.00;1.90;;;;;;;18.16;59.07;102396.63;5025744;28;20564;-75
2021/07/22 07:41:19;;;;;;;2.50;2.30;;;;;;;17.58;59.36;102269.72;5018030;28;20188;-76
2021/07/22 07:43:47;;;;;;;2.27;2.17;;;;;;;18.41;58.27;102390.53;5025306;28;20184;-75
2021/07/22 07:46:12;;;;;;;2.87;1.77;;;;;;;17.82;57.48;102303.56;5020608;28;20228;-76
2021/07/22 07:48:40;;;;;;;3.97;2.00;;;;;;;18.36;58.10;102393.84;5020696;28;21018;-76
2021/07/22 07:51:08;;;;;;;1.87;1.77;;;;;;;18.59;57.08;102414.28;5026150;28;20185;-76
2021/07/22 07:53:34;;;;;;;2.23;1.90;;;;;;;18.42;54.07;102395.72;5024677;28;20443;-75
2021/07/22 07:56:00;;;;;;;3.23;2.13;;;;;;;17.95;55.75;102331.72;5037341;28;20925;-76
2021/07/22 07:58:25;;;;;;;2.20;1.80;;;;;;;17.64;57.41;102306.03;5021725;28;20457;-76
2021/07/22 08:00:51;;;;;;;2.10;1.90;;;;;;;16.92;59.00;102173.00;5027425;28;20288;-76
2021/07/22 08:03:20;;;;;;;1.87;1.70;;;;;;;18.63;57.10;102396.50;5027170;28;20186;-75
2021/07/22 08:05:47;;;;;;;2.50;1.77;;;;;;;18.59;56.71;102374.34;5039186;28;20236;-76
2021/07/22 08:08:12;;;;;;;1.93;1.80;;;;;;;18.90;55.79;102370.91;5028087;28;20443;-76
2021/07/22 08:10:40;;;;;;;3.67;1.80;;;;;;;19.00;54.92;102394.06;5029584;28;20502;-75
2021/07/22 08:13:07;;;;;;;4.33;2.00;;;;;;;19.04;55.60;102407.03;5026051;28;20189;-75
2021/07/22 08:15:33;;;;;;;1.87;1.40;;;;;;;18.59;54.96;102340.91;5020833;28;20970;-76
2021/07/22 08:17:58;;;;;;;2.30;1.77;;;;;;;18.52;56.65;102349.94;5027334;28;20443;-76
2021/07/22 08:20:23;;;;;;;3.10;2.00;;;;;;;18.72;55.00;102398.78;5027527;28;20558;-76
2021/07/22 08:22:49;;;;;;;5.23;2.00;;;;;;;18.49;57.91;102406.59;5019762;28;20242;-76
2021/07/22 08:25:14;;;;;;;1.73;1.63;;;;;;;18.47;57.74;102395.91;5020681;28;20226;-76
2021/07/22 08:27:39;;;;;;;4.60;1.87;;;;;;;18.59;54.60;102398.81;5027663;28;20604;-76
2021/07/22 08:30:06;;;;;;;1.80;1.70;;;;;;;18.46;57.30;102390.72;5025679;28;20189;-75
2021/07/22 08:32:31;;;;;;;2.80;1.50;;;;;;;18.38;54.64;102321.16;5019099;28;20189;-75
2021/07/22 08:34:59;;;;;;;1.60;1.50;;;;;;;18.70;53.84;102346.50;5020972;28;20475;-76
2021/07/22 08:37:24;;;;;;;1.50;1.40;;;;;;;19.17;54.84;102400.66;5024609;28;20239;-76
2021/07/22 08:39:51;;;;;;;1.83;1.67;;;;;;;18.83;54.49;102366.53;5027677;28;20430;-76
2021/07/22 08:42:17;;;;;;;2.20;2.00;;;;;;;19.17;55.13;102404.22;5027383;28;20275;-75
2021/07/22 08:44:43;;;;;;;2.30;1.83;;;;;;;19.20;54.94;102401.06;5025841;28;20526;-75
2021/07/22 08:47:10;;;;;;;3.87;2.20;;;;;;;19.21;53.47;102396.47;5024166;28;20244;-78
2021/07/22 08:49:38;;;;;;;1.83;1.70;;;;;;;19.18;54.81;102403.19;5025906;28;20439;-78
2021/07/22 08:52:10;;;;;;;2.57;1.73;;;;;;;18.93;55.88;102396.81;5028055;28;20431;-77
2021/07/22 08:54:37;;;;;;;4.47;1.73;;;;;;;18.89;55.43;102395.56;5038720;28;20518;-78
2021/07/22 08:57:06;;;;;;;1.90;1.70;;;;;;;18.72;54.54;102387.06;5023782;28;20455;-78
2021/07/22 08:59:32;;;;;;;2.00;1.90;;;;;;;19.02;54.23;102392.81;5036646;28;20436;-78
2021/07/22 09:01:58;;;;;;;2.20;1.70;;;;;;;18.97;54.59;102393.44;5022983;28;20523;-78
2021/07/22 09:04:24;;;;;;;3.80;1.53;;;;;;;18.80;55.00;102367.81;5037361;28;20181;-76
2021/07/22 09:06:49;;;;;;;2.07;1.87;;;;;;;18.48;53.19;102298.94;5026257;28;20467;-75
2021/07/22 09:09:16;;;;;;;4.43;1.80;;;;;;;19.01;53.27;102379.44;5021890;28;20246;-76
2021/07/22 09:12:00;;;;;;;2.47;1.87;;;;;;;19.15;52.75;102403.63;5038240;28;20272;-76
2021/07/22 09:14:28;;;;;;;3.77;2.03;;;;;;;19.17;52.52;102390.59;5022100;28;20423;-76
2021/07/22 09:16:53;;;;;;;1.90;1.60;;;;;;;18.29;52.56;102303.44;5018503;28;20471;-76
2021/07/22 09:19:34;;;;;;;3.80;1.77;;;;;;;19.08;52.77;102391.94;5020534;28;20933;-76
2021/07/22 09:21:59;;;;;;;1.80;1.70;;;;;;;18.89;52.39;102396.44;5028518;28;20222;-77
2021/07/22 09:24:25;;;;;;;1.90;1.60;;;;;;;18.35;54.60;102354.16;5027575;28;20529;-76
2021/07/22 09:26:51;;;;;;;4.27;1.93;;;;;;;18.17;53.69;102338.56;5021689;28;22267;-76
2021/07/22 09:29:17;;;;;;;2.13;1.90;;;;;;;18.70;53.04;102372.84;5023772;28;20185;-76
2021/07/22 09:31:46;;;;;;;1.50;1.40;;;;;;;18.97;54.13;102396.16;5023152;28;20419;-76
2021/07/22 09:34:25;;;;;;;1.93;1.77;;;;;;;19.25;53.30;102375.09;5034871;28;20444;-76
2021/07/22 09:36:50;;;;;;;3.53;1.70;;;;;;;19.35;53.47;102349.09;5026598;28;20471;-76
2021/07/22 09:39:28;;;;;;;3.60;1.53;;;;;;;19.76;53.28;102393.16;5021107;28;20495;-76
2021/07/22 09:41:57;;;;;;;4.50;1.70;;;;;;;19.20;52.15;102400.22;5024249;28;20440;-76
2021/07/22 09:44:27;;;;;;;1.63;1.53;;;;;;;19.22;53.45;102398.13;5024665;28;20447;-76
2021/07/22 09:46:52;;;;;;;2.50;1.60;;;;;;;18.56;53.02;102282.41;5013462;28;20466;-77
2021/07/22 09:49:18;;;;;;;3.73;1.63;;;;;;;18.85;53.79;102343.53;5025303;28;20446;-77
2021/07/22 09:51:43;;;;;;;5.30;1.83;;;;;;;19.27;51.13;102370.28;5025763;28;20303;-76
2021/07/22 09:54:10;;;;;;;3.20;1.50;;;;;;;19.62;51.67;102386.97;5024389;28;20692;-76
2021/07/22 09:56:39;;;;;;;4.67;1.40;;;;;;;19.22;49.68;102392.69;5032439;28;20229;-76
2021/07/22 09:59:06;;;;;;;1.13;1.00;;;;;;;19.53;51.27;102363.81;5014466;28;20438;-76
2021/07/22 10:01:38;;;;;;;1.30;1.20;;;;;;;19.99;50.83;102385.22;5023169;28;20466;-76
2021/07/22 10:04:06;;;;;;;2.07;1.87;;;;;;;18.52;51.06;102192.34;5018694;28;20498;-76
2021/07/22 10:06:34;;;;;;;1.60;1.50;;;;;;;19.69;51.89;102397.84;5027045;28;20459;-76
2021/07/22 10:09:02;;;;;;;2.80;1.40;;;;;;;19.75;51.61;102405.09;5022418;28;20459;-78
2021/07/22 10:11:28;;;;;;;2.20;1.90;;;;;;;19.22;51.55;102373.66;5024471;28;21498;-78
2021/07/22 10:13:53;;;;;;;1.97;1.67;;;;;;;18.90;51.51;102335.56;5032855;28;20426;-78
2021/07/22 10:16:21;;;;;;;2.20;1.23;;;;;;;19.45;53.18;102343.13;5025068;28;20499;-79
2021/07/22 10:18:49;;;;;;;1.70;1.47;;;;;;;19.93;51.10;102394.28;5028572;28;20778;-78
2021/07/22 10:21:15;;;;;;;3.90;1.70;;;;;;;19.98;50.11;102408.03;5040779;28;20433;-78
2021/07/22 10:23:42;;;;;;;1.90;1.77;;;;;;;19.42;49.86;102291.88;5026589;28;20432;-78
2021/07/22 10:26:08;;;;;;;1.70;1.60;;;;;;;20.08;49.20;102402.94;5027145;28;20299;-78
2021/07/22 10:28:34;;;;;;;1.73;1.10;;;;;;;20.37;49.11;102386.09;5029699;28;20534;-78
2021/07/22 10:31:02;;;;;;;3.50;1.53;;;;;;;19.83;50.25;102294.03;5033929;28;21003;-77
2021/07/22 10:33:28;;;;;;;1.47;1.37;;;;;;;19.82;50.31;102295.09;5027162;28;20189;-78
2021/07/22 10:35:56;;;;;;;1.83;1.73;;;;;;;19.71;51.36;102312.16;5025402;28;20482;-78
2021/07/22 10:38:23;;;;;;;1.30;1.20;;;;;;;19.98;48.54;102397.16;5021500;28;20423;-78
2021/07/22 10:40:59;;;;;;;2.57;1.73;;;;;;;19.45;49.50;102375.78;5017628;28;20446;-78
2021/07/22 10:46:07;;;;;;;2.73;1.40;;;;;;;20.07;48.75;102381.34;5020430;28;20462;-78
2021/07/22 10:48:32;;;;;;;1.90;1.57;;;;;;;19.99;50.38;102385.22;5027357;28;20431;-78
2021/07/22 10:50:59;;;;;;;2.97;1.40;;;;;;;20.20;51.49;102388.56;5038276;28;20444;-78
2021/07/22 10:53:54;;;;;;;3.27;1.90;;;;;;;19.80;52.33;102389.78;5021327;28;20189;-78
2021/07/22 10:56:23;;;;;;;1.70;1.10;;;;;;;19.92;52.69;102380.88;5007324;28;20483;-77
2021/07/22 10:58:58;;;;;;;1.30;1.20;;;;;;;20.29;51.11;102384.50;5025987;28;20451;-78
2021/07/22 11:01:42;;;;;;;1.73;1.43;;;;;;;20.42;51.19;102380.75;5023130;28;20435;-77
2021/07/22 11:04:31;;;;;;;2.93;1.40;;;;;;;20.33;48.75;102370.16;5024520;28;20451;-77
2021/07/22 11:06:59;;;;;;;1.80;1.10;;;;;;;20.09;49.46;102373.78;5025258;28;21175;-78
2021/07/22 11:09:54;;;;;;;2.00;1.30;;;;;;;20.60;50.06;102367.19;5021523;28;20494;-78
2021/07/22 11:12:42;;;;;;;1.40;1.30;;;;;;;20.18;48.94;102367.00;5022623;28;20962;-78
2021/07/22 11:15:09;;;;;;;2.30;1.30;;;;;;;20.26;49.54;102365.88;5037913;28;20474;-78
2021/07/22 11:17:35;;;;;;;3.20;1.20;;;;;;;20.65;50.29;102361.03;5024339;28;20479;-78
2021/07/22 11:20:19;;;;;;;1.30;1.20;;;;;;;20.42;47.69;102369.88;5030074;28;20438;-78
2021/07/22 11:22:45;;;;;;;1.40;1.03;;;;;;;20.08;48.30;102361.25;5040320;28;20435;-78
2021/07/22 11:25:12;;;;;;;1.63;1.00;;;;;;;20.52;49.66;102337.47;5017136;28;20461;-77